Terminal Aerodrome Forecast
Issued by NWS

Home | Current Version | Previous Version | Text Only | Print | Product List | Glossary On
Versions: 1 2 3 4 5 6 7 8 9 10 11 12 13 14
000
FTUS45 KABQ 281700
TAFSAF
TAF
KSAF 281722Z 2818/2918 36011KT P6SM FEW250
     FM282000 25008KT P6SM FEW250
     FM290200 36009KT P6SM FEW250=

USA.gov is the U.S. government's official web portal to all federal, state and local government web resources and services.